createdAt,value
2018-05-06T00:00:40.064Z,82.10
2018-05-06T00:03:07.703Z,82.10
2018-05-06T00:05:35.287Z,82.10
2018-05-06T00:08:02.862Z,82.20
2018-05-06T00:10:30.413Z,82.70
2018-05-06T00:12:57.991Z,82.90
2018-05-06T00:15:25.613Z,83.50
2018-05-06T00:17:53.173Z,83.60
2018-05-06T00:20:20.722Z,83.80
2018-05-06T00:22:48.658Z,83.40
2018-05-06T00:25:16.259Z,83.40
2018-05-06T00:27:43.847Z,83.50
2018-05-06T00:30:11.472Z,83.20
2018-05-06T00:32:39.440Z,83.20
2018-05-06T00:35:07.419Z,83.60
2018-05-06T00:37:34.946Z,83.60
2018-05-06T00:40:02.593Z,83.60
2018-05-06T00:42:30.159Z,83.70
2018-05-06T00:44:57.783Z,84.20
2018-05-06T00:47:25.366Z,84.30
2018-05-06T00:49:52.954Z,84.80
2018-05-06T00:52:20.887Z,84.10
2018-05-06T00:54:48.459Z,84.00
2018-05-06T00:57:15.999Z,84.10
2018-05-06T00:59:43.575Z,84.50
2018-05-06T01:02:11.122Z,84.80
2018-05-06T01:04:38.738Z,84.90
2018-05-06T01:07:06.308Z,85.20
2018-05-06T01:09:33.899Z,85.30
2018-05-06T01:12:01.444Z,85.60
2018-05-06T01:14:29.108Z,85.60
2018-05-06T01:16:56.639Z,84.90
2018-05-06T01:19:24.183Z,85.00
2018-05-06T01:21:51.745Z,85.50
2018-05-06T01:24:19.314Z,85.40
2018-05-06T01:26:46.893Z,85.50
2018-05-06T01:29:14.448Z,85.60
2018-05-06T01:31:42.027Z,85.40
2018-05-06T01:34:09.599Z,85.10
2018-05-06T01:36:37.190Z,85.20
2018-05-06T01:39:04.754Z,85.30
2018-05-06T01:41:32.330Z,85.40
2018-05-06T01:43:59.905Z,85.50
2018-05-06T01:46:27.475Z,85.80
2018-05-06T01:48:55.047Z,86.00
2018-05-06T01:51:22.670Z,86.30
2018-05-06T01:53:50.237Z,86.70
2018-05-06T01:56:17.840Z,86.40
2018-05-06T01:58:45.450Z,86.50
2018-05-06T02:01:12.990Z,86.80
2018-05-06T02:03:40.573Z,86.80
2018-05-06T02:06:08.185Z,86.70
2018-05-06T02:08:35.729Z,87.20
2018-05-06T02:11:03.309Z,87.60
2018-05-06T02:13:30.847Z,87.20
2018-05-06T02:15:58.821Z,87.10
2018-05-06T02:18:26.398Z,87.10
2018-05-06T02:20:53.977Z,87.70
2018-05-06T02:23:21.555Z,87.80
2018-05-06T02:25:49.101Z,87.60
2018-05-06T02:28:16.688Z,87.80
2018-05-06T02:30:44.283Z,87.90
2018-05-06T02:33:11.853Z,88.10
2018-05-06T02:35:39.404Z,88.00
2018-05-06T02:38:07.025Z,86.90
2018-05-06T02:40:34.567Z,86.80
2018-05-06T02:43:02.137Z,86.60
2018-05-06T02:45:29.730Z,87.10
2018-05-06T02:47:57.297Z,87.10
2018-05-06T02:50:24.842Z,87.40
2018-05-06T02:52:52.423Z,87.40
2018-05-06T02:55:20.039Z,87.80
2018-05-06T02:57:47.581Z,87.80
2018-05-06T03:00:15.126Z,88.10
2018-05-06T03:02:42.757Z,88.30
2018-05-06T03:05:10.328Z,88.40
2018-05-06T03:07:37.906Z,88.40
2018-05-06T03:10:05.460Z,88.30
2018-05-06T03:12:33.068Z,89.30
2018-05-06T03:15:01.032Z,89.80
2018-05-06T03:17:28.603Z,89.80
2018-05-06T03:19:56.141Z,89.30
2018-05-06T03:22:23.778Z,88.70
2018-05-06T03:24:51.367Z,88.40
2018-05-06T03:27:19.359Z,88.50
2018-05-06T03:29:46.912Z,88.50
2018-05-06T03:32:14.495Z,87.90
2018-05-06T03:34:42.119Z,87.40
2018-05-06T03:37:09.742Z,87.40
2018-05-06T03:39:37.339Z,87.60
2018-05-06T03:42:04.935Z,87.60
2018-05-06T03:44:32.491Z,87.20
2018-05-06T03:47:00.065Z,87.30
2018-05-06T03:49:27.633Z,87.30
2018-05-06T03:51:55.185Z,87.40
2018-05-06T03:54:22.807Z,86.80
2018-05-06T03:57:13.205Z,86.90
2018-05-06T03:59:52.403Z,87.10
2018-05-06T04:05:17.535Z,87.70
2018-05-06T04:07:45.084Z,88.70
2018-05-06T04:10:12.679Z,88.90
2018-05-06T04:12:40.239Z,89.50
2018-05-06T04:15:07.827Z,89.50
2018-05-06T04:17:35.381Z,89.40
2018-05-06T04:20:02.962Z,89.60
2018-05-06T04:22:30.882Z,89.90
2018-05-06T04:24:58.520Z,89.90
2018-05-06T04:27:26.137Z,89.60
2018-05-06T04:29:53.742Z,88.70
2018-05-06T04:32:21.303Z,88.40
2018-05-06T04:34:48.837Z,88.00
2018-05-06T04:37:16.456Z,87.90
2018-05-06T04:39:44.119Z,88.20
2018-05-06T04:42:11.653Z,88.10
2018-05-06T04:44:39.209Z,87.90
2018-05-06T04:47:06.757Z,88.20
2018-05-06T04:49:34.365Z,88.40
2018-05-06T04:52:01.895Z,88.40
2018-05-06T04:54:29.864Z,88.90
2018-05-06T04:56:57.398Z,88.90
2018-05-06T04:59:24.988Z,88.80
2018-05-06T05:01:52.523Z,88.90
2018-05-06T05:04:20.141Z,89.10
2018-05-06T05:06:48.106Z,88.80
2018-05-06T05:09:16.094Z,88.70
2018-05-06T05:11:43.615Z,88.70
2018-05-06T05:14:11.189Z,88.90
2018-05-06T05:16:39.161Z,88.80
2018-05-06T05:19:06.752Z,88.80
2018-05-06T05:21:34.301Z,88.70
2018-05-06T05:24:01.873Z,88.60
2018-05-06T05:26:29.406Z,88.70
2018-05-06T05:28:56.942Z,88.60
2018-05-06T05:31:24.519Z,88.60
2018-05-06T05:33:52.053Z,88.50
2018-05-06T05:36:19.670Z,88.30
2018-05-06T05:38:47.223Z,88.10
2018-05-06T05:41:14.793Z,87.60
2018-05-06T05:43:42.338Z,87.40
2018-05-06T05:46:09.884Z,87.00
2018-05-06T05:48:37.472Z,86.60
2018-05-06T05:51:05.082Z,86.20
2018-05-06T05:53:32.705Z,86.00
2018-05-06T05:56:00.355Z,85.70
2018-05-06T05:58:27.892Z,84.90
2018-05-06T06:00:55.506Z,84.00
2018-05-06T06:03:23.074Z,83.90
2018-05-06T06:05:50.711Z,83.60
2018-05-06T06:08:18.278Z,82.90
2018-05-06T06:10:45.840Z,82.80
2018-05-06T06:13:13.389Z,82.40
2018-05-06T06:15:41.010Z,82.30
2018-05-06T06:18:08.544Z,82.00
2018-05-06T06:20:36.120Z,82.00
2018-05-06T06:23:03.704Z,81.40
2018-05-06T06:25:31.336Z,81.10
2018-05-06T06:27:58.861Z,80.90
2018-05-06T06:30:26.885Z,79.80
2018-05-06T06:32:54.496Z,79.80
2018-05-06T06:35:22.034Z,78.60
2018-05-06T06:37:49.650Z,78.70
2018-05-06T06:40:17.453Z,78.60
2018-05-06T06:42:45.064Z,78.00
2018-05-06T06:45:12.637Z,77.10
2018-05-06T06:47:40.184Z,77.10
2018-05-06T06:50:07.731Z,75.80
2018-05-06T06:52:35.305Z,76.70
2018-05-06T06:55:02.899Z,76.00
2018-05-06T06:57:30.498Z,75.50
2018-05-06T06:59:58.118Z,74.50
2018-05-06T07:02:25.685Z,73.80
2018-05-06T07:04:53.631Z,73.70
2018-05-06T07:07:21.204Z,73.70
2018-05-06T07:09:48.729Z,73.40
2018-05-06T07:12:16.327Z,71.90
2018-05-06T07:14:44.316Z,71.00
2018-05-06T07:17:11.906Z,71.10
2018-05-06T07:19:39.425Z,70.20
2018-05-06T07:22:07.016Z,71.70
2018-05-06T07:24:34.606Z,69.90
2018-05-06T07:27:02.222Z,68.80
2018-05-06T07:29:29.741Z,69.80
2018-05-06T07:31:57.549Z,68.40
2018-05-06T07:34:25.086Z,68.40
2018-05-06T07:36:52.748Z,67.80
2018-05-06T07:39:20.422Z,66.80
2018-05-06T07:41:48.019Z,66.90
2018-05-06T07:44:15.601Z,66.80
2018-05-06T07:46:43.258Z,65.50
2018-05-06T07:49:11.079Z,65.90
2018-05-06T07:51:38.909Z,65.50
2018-05-06T07:54:06.541Z,66.90
2018-05-06T07:56:34.118Z,66.20
2018-05-06T07:59:01.690Z,64.90
2018-05-06T08:01:29.263Z,65.90
2018-05-06T08:03:56.822Z,65.50
2018-05-06T08:06:24.354Z,66.70
2018-05-06T08:08:52.002Z,66.30
2018-05-06T08:11:19.531Z,64.90
2018-05-06T08:13:47.160Z,65.60
2018-05-06T08:16:14.778Z,65.60
2018-05-06T08:18:42.261Z,63.90
2018-05-06T08:21:09.880Z,65.20
2018-05-06T08:23:37.463Z,65.00
2018-05-06T08:26:05.437Z,64.00
2018-05-06T08:28:33.102Z,64.00
2018-05-06T08:31:01.098Z,63.40
2018-05-06T08:33:28.830Z,63.40
2018-05-06T08:35:56.408Z,63.10
2018-05-06T08:38:23.996Z,63.20
2018-05-06T08:40:51.529Z,63.00
2018-05-06T08:43:19.114Z,62.70
2018-05-06T08:45:46.785Z,62.10
2018-05-06T08:48:14.693Z,61.20
2018-05-06T08:50:42.242Z,61.10
2018-05-06T08:53:10.221Z,62.30
2018-05-06T08:55:37.786Z,62.30
2018-05-06T08:58:05.437Z,61.50
2018-05-06T09:00:32.990Z,61.70
2018-05-06T09:03:00.587Z,60.00
2018-05-06T09:05:28.155Z,60.00
2018-05-06T09:07:56.003Z,58.80
2018-05-06T09:10:23.877Z,58.60
2018-05-06T09:12:51.909Z,58.80
2018-05-06T09:15:19.464Z,58.80
2018-05-06T09:17:47.029Z,60.10
2018-05-06T09:20:14.595Z,59.90
2018-05-06T09:22:42.155Z,58.60
2018-05-06T09:25:09.799Z,58.60
2018-05-06T09:27:37.387Z,60.10
2018-05-06T09:30:04.977Z,59.30
2018-05-06T09:32:32.532Z,59.00
2018-05-06T09:35:00.159Z,58.60
2018-05-06T09:37:27.700Z,57.80
2018-05-06T09:39:55.239Z,58.40
2018-05-06T09:42:23.942Z,58.50
2018-05-06T09:44:51.524Z,58.50
2018-05-06T09:47:19.113Z,58.40
2018-05-06T09:49:46.677Z,58.80
2018-05-06T09:52:14.423Z,58.20
2018-05-06T09:54:42.613Z,57.80
2018-05-06T09:57:10.201Z,58.00
2018-05-06T09:59:37.790Z,57.40
2018-05-06T10:02:05.309Z,57.60
2018-05-06T10:04:32.902Z,57.20
2018-05-06T10:07:00.435Z,56.80
2018-05-06T10:09:27.993Z,56.70
2018-05-06T10:11:55.545Z,54.30
2018-05-06T10:14:23.171Z,56.60
2018-05-06T10:16:50.721Z,53.30
2018-05-06T10:19:19.031Z,54.90
2018-05-06T10:21:47.045Z,54.90
2018-05-06T10:24:14.692Z,54.20
2018-05-06T10:26:42.271Z,54.90
2018-05-06T10:29:09.827Z,57.00
2018-05-06T10:31:37.451Z,57.40
2018-05-06T10:34:05.373Z,55.80
2018-05-06T10:36:32.946Z,55.80
2018-05-06T10:39:00.505Z,55.80
2018-05-06T10:41:28.109Z,56.60
2018-05-06T10:43:55.687Z,55.80
2018-05-06T10:46:23.214Z,55.40
2018-05-06T10:48:50.801Z,55.50
2018-05-06T10:51:18.385Z,55.40
2018-05-06T10:53:45.913Z,54.50
2018-05-06T10:56:13.455Z,54.80
2018-05-06T10:58:41.024Z,54.50
2018-05-06T11:01:08.569Z,54.40
2018-05-06T11:03:36.338Z,56.00
2018-05-06T11:06:04.199Z,54.40
2018-05-06T11:08:32.049Z,56.80
2018-05-06T11:10:59.673Z,56.10
2018-05-06T11:13:27.585Z,55.10
2018-05-06T11:15:55.598Z,55.70
2018-05-06T11:18:23.334Z,54.20
2018-05-06T11:20:50.975Z,53.80
2018-05-06T11:23:18.524Z,54.20
2018-05-06T11:25:46.104Z,54.10
2018-05-06T11:28:13.699Z,56.10
2018-05-06T11:30:41.319Z,55.70
2018-05-06T11:33:08.995Z,55.80
2018-05-06T11:35:36.831Z,55.10
2018-05-06T11:38:04.522Z,55.50
2018-05-06T11:40:32.316Z,55.80
2018-05-06T11:42:59.947Z,53.70
2018-05-06T11:45:27.477Z,55.60
2018-05-06T11:47:55.031Z,57.20
2018-05-06T11:50:22.610Z,55.30
2018-05-06T11:52:50.526Z,55.50
2018-05-06T11:55:18.130Z,56.70
2018-05-06T11:57:45.675Z,54.50
2018-05-06T12:00:13.222Z,56.10
2018-05-06T12:02:40.798Z,54.40
2018-05-06T12:05:08.342Z,53.90
2018-05-06T12:07:35.941Z,54.50
2018-05-06T12:10:03.482Z,54.40
2018-05-06T12:12:31.047Z,56.00
2018-05-06T12:14:58.574Z,53.10
2018-05-06T12:17:26.098Z,54.20
2018-05-06T12:19:53.682Z,55.20
2018-05-06T12:22:21.257Z,53.60
2018-05-06T12:24:49.159Z,55.00
2018-05-06T12:27:16.722Z,54.90
2018-05-06T12:29:44.309Z,54.20
2018-05-06T12:32:11.845Z,53.90
2018-05-06T12:34:40.437Z,54.20
2018-05-06T12:37:08.078Z,54.10
2018-05-06T12:39:35.657Z,55.60
2018-05-06T12:42:03.213Z,54.00
2018-05-06T12:44:30.822Z,54.30
2018-05-06T12:46:58.337Z,54.10
2018-05-06T12:49:25.905Z,55.40
2018-05-06T12:51:53.833Z,54.50
2018-05-06T12:54:21.412Z,54.20
2018-05-06T12:56:49.106Z,53.80
2018-05-06T12:59:16.824Z,53.30
2018-05-06T13:01:44.352Z,52.90
2018-05-06T13:04:12.036Z,51.30
2018-05-06T13:06:41.635Z,52.50
2018-05-06T13:09:09.279Z,51.30
2018-05-06T13:11:36.880Z,50.60
2018-05-06T13:14:04.887Z,50.90
2018-05-06T13:16:32.503Z,49.50
2018-05-06T13:19:00.091Z,50.10
2018-05-06T13:21:27.714Z,49.40
2018-05-06T13:23:55.398Z,47.80
2018-05-06T13:26:22.955Z,46.80
2018-05-06T13:28:51.858Z,47.60
2018-05-06T13:31:19.810Z,46.50
2018-05-06T13:33:47.422Z,46.50
2018-05-06T13:36:15.140Z,45.90
2018-05-06T13:38:42.745Z,46.00
2018-05-06T13:41:10.359Z,45.20
2018-05-06T13:43:38.857Z,45.50
2018-05-06T13:46:06.898Z,44.00
2018-05-06T13:48:34.996Z,43.80
2018-05-06T13:51:02.634Z,43.70
2018-05-06T13:53:30.363Z,43.80
2018-05-06T13:55:58.162Z,42.80
2018-05-06T13:58:25.723Z,42.20
2018-05-06T14:00:53.276Z,42.00
2018-05-06T14:03:20.832Z,42.10
2018-05-06T14:05:48.452Z,41.10
2018-05-06T14:08:16.016Z,42.30
2018-05-06T14:10:43.612Z,41.20
2018-05-06T14:13:14.589Z,41.90
2018-05-06T14:15:42.250Z,42.20
2018-05-06T14:18:10.336Z,42.80
2018-05-06T14:20:38.224Z,42.00
2018-05-06T14:23:05.900Z,42.30
2018-05-06T14:25:33.626Z,42.60
2018-05-06T14:28:01.188Z,42.20
2018-05-06T14:30:28.774Z,41.80
2018-05-06T14:32:56.444Z,40.80
2018-05-06T14:35:24.092Z,41.80
2018-05-06T14:37:51.624Z,40.40
2018-05-06T14:40:19.157Z,40.70
2018-05-06T14:42:46.731Z,41.70
2018-05-06T14:45:14.276Z,40.60
2018-05-06T14:47:53.635Z,41.10
2018-05-06T14:50:29.124Z,40.40
2018-05-06T14:52:56.685Z,40.40
2018-05-06T14:55:24.682Z,41.60
2018-05-06T14:57:52.230Z,41.60
2018-05-06T15:00:19.964Z,41.60
2018-05-06T15:02:47.534Z,40.60
2018-05-06T15:05:15.093Z,40.80
2018-05-06T15:07:43.071Z,41.20
2018-05-06T15:10:11.050Z,40.90
2018-05-06T15:12:38.609Z,40.90
2018-05-06T15:15:06.186Z,41.00
2018-05-06T15:17:33.812Z,41.30
2018-05-06T15:20:01.384Z,40.50
2018-05-06T15:22:28.980Z,40.20
2018-05-06T15:24:56.500Z,40.40
2018-05-06T15:27:24.082Z,40.60
2018-05-06T15:29:51.627Z,40.00
2018-05-06T15:32:19.216Z,40.20
2018-05-06T15:34:46.838Z,40.60
2018-05-06T15:37:14.426Z,39.90
2018-05-06T15:39:41.960Z,39.50
2018-05-06T15:42:09.511Z,39.70
2018-05-06T15:44:37.087Z,40.70
2018-05-06T15:47:04.626Z,40.20
2018-05-06T15:49:32.239Z,40.20
2018-05-06T15:51:59.777Z,40.40
2018-05-06T15:54:27.401Z,39.50
2018-05-06T15:56:54.948Z,38.80
2018-05-06T15:59:22.522Z,38.70
2018-05-06T16:02:01.794Z,38.50
2018-05-06T16:04:29.388Z,39.30
2018-05-06T16:06:57.383Z,39.30
2018-05-06T16:09:24.927Z,39.30
2018-05-06T16:11:52.895Z,39.00
2018-05-06T16:14:20.491Z,39.20
2018-05-06T16:16:48.046Z,38.50
2018-05-06T16:19:15.627Z,39.30
2018-05-06T16:21:43.163Z,39.80
2018-05-06T16:24:10.758Z,39.30
2018-05-06T16:26:38.349Z,39.00
2018-05-06T16:29:05.945Z,39.30
2018-05-06T16:31:33.499Z,40.10
2018-05-06T16:34:01.105Z,39.00
2018-05-06T16:36:28.646Z,38.60
2018-05-06T16:38:56.256Z,39.20
2018-05-06T16:41:23.825Z,39.30
2018-05-06T16:43:51.365Z,39.00
2018-05-06T16:46:18.892Z,39.30
2018-05-06T16:48:46.470Z,39.30
2018-05-06T16:51:14.412Z,39.00
2018-05-06T16:53:48.894Z,39.90
2018-05-06T16:56:16.470Z,40.00
2018-05-06T16:58:44.086Z,40.20
2018-05-06T17:01:11.705Z,40.60
2018-05-06T17:03:39.295Z,40.40
2018-05-06T17:06:06.839Z,40.60
2018-05-06T17:08:34.373Z,40.80
2018-05-06T17:11:02.060Z,41.20
2018-05-06T17:13:29.634Z,40.10
2018-05-06T17:15:57.230Z,40.90
2018-05-06T17:18:24.783Z,41.20
2018-05-06T17:20:52.751Z,41.60
2018-05-06T17:23:20.291Z,41.60
2018-05-06T17:25:47.905Z,41.40
2018-05-06T17:28:15.441Z,41.70
2018-05-06T17:30:43.063Z,41.90
2018-05-06T17:33:10.660Z,42.40
2018-05-06T17:35:38.211Z,42.50
2018-05-06T17:38:06.070Z,43.10
2018-05-06T17:40:34.254Z,43.40
2018-05-06T17:43:03.127Z,43.10
2018-05-06T17:45:30.742Z,43.10
2018-05-06T17:47:58.310Z,44.10
2018-05-06T17:50:26.219Z,43.30
2018-05-06T17:52:53.823Z,43.60
2018-05-06T17:55:21.415Z,43.70
2018-05-06T17:57:48.960Z,43.80
2018-05-06T18:00:16.595Z,44.00
2018-05-06T18:02:44.140Z,44.40
2018-05-06T18:05:11.740Z,45.30
2018-05-06T18:07:41.266Z,44.80
2018-05-06T18:10:08.807Z,46.50
2018-05-06T18:12:36.383Z,48.10
2018-05-06T18:15:03.953Z,49.10
2018-05-06T18:17:31.516Z,49.70
2018-05-06T18:19:59.049Z,50.50
2018-05-06T18:22:26.646Z,51.30
2018-05-06T18:24:54.227Z,51.20
2018-05-06T18:27:22.227Z,52.40
2018-05-06T18:29:49.795Z,52.40
2018-05-06T18:32:17.510Z,52.80
2018-05-06T18:34:45.033Z,53.10
2018-05-06T18:37:12.938Z,53.90
2018-05-06T18:39:40.470Z,54.60
2018-05-06T18:42:08.043Z,55.30
2018-05-06T18:44:35.611Z,56.00
2018-05-06T18:47:03.246Z,56.20
2018-05-06T18:49:30.772Z,56.50
2018-05-06T18:51:58.345Z,56.70
2018-05-06T18:54:25.929Z,56.90
2018-05-06T18:56:54.413Z,57.70
2018-05-06T18:59:22.133Z,58.00
2018-05-06T19:01:49.719Z,59.00
2018-05-06T19:04:17.255Z,59.30
2018-05-06T19:06:44.873Z,59.60
2018-05-06T19:09:12.806Z,60.50
2018-05-06T19:11:40.419Z,60.50
2018-05-06T19:14:08.015Z,61.90
2018-05-06T19:16:35.580Z,61.60
2018-05-06T19:19:03.165Z,62.20
2018-05-06T19:21:32.105Z,62.60
2018-05-06T19:24:01.200Z,62.50
2018-05-06T19:26:28.967Z,62.70
2018-05-06T19:28:56.570Z,62.90
2018-05-06T19:31:24.138Z,63.10
2018-05-06T19:33:53.958Z,62.60
2018-05-06T19:36:21.570Z,62.60
2018-05-06T19:38:49.127Z,63.00
2018-05-06T19:41:16.687Z,63.40
2018-05-06T19:43:44.281Z,63.70
2018-05-06T19:46:11.841Z,64.10
2018-05-06T19:48:39.454Z,64.90
2018-05-06T19:51:06.977Z,65.30
2018-05-06T19:53:34.541Z,65.70
2018-05-06T19:56:02.085Z,66.20
2018-05-06T19:58:29.676Z,65.80
2018-05-06T20:00:57.222Z,66.40
2018-05-06T20:03:24.775Z,66.30
2018-05-06T20:05:52.317Z,66.00
2018-05-06T20:08:19.919Z,65.90
2018-05-06T20:10:47.457Z,66.40
2018-05-06T20:13:15.035Z,66.40
2018-05-06T20:15:42.610Z,66.50
2018-05-06T20:18:10.163Z,66.70
2018-05-06T20:20:37.689Z,66.60
2018-05-06T20:23:08.104Z,66.90
2018-05-06T20:25:35.678Z,67.20
2018-05-06T20:28:03.265Z,67.80
2018-05-06T20:30:30.836Z,68.10
2018-05-06T20:32:58.524Z,68.20
2018-05-06T20:35:26.136Z,68.60
2018-05-06T20:37:53.715Z,68.90
2018-05-06T20:40:21.717Z,69.50
2018-05-06T20:42:49.264Z,69.50
2018-05-06T20:45:16.879Z,69.50
2018-05-06T20:47:44.419Z,70.10
2018-05-06T20:50:11.986Z,70.90
2018-05-06T20:52:39.539Z,71.30
2018-05-06T20:55:07.154Z,71.00
2018-05-06T20:57:34.756Z,71.30
2018-05-06T21:00:02.361Z,71.40
2018-05-06T21:02:29.925Z,72.00
2018-05-06T21:04:57.935Z,73.00
2018-05-06T21:07:25.479Z,73.00
2018-05-06T21:09:53.046Z,73.10
2018-05-06T21:12:20.615Z,72.60
2018-05-06T21:14:48.163Z,72.50
2018-05-06T21:17:15.697Z,72.40
2018-05-06T21:19:43.683Z,72.50
2018-05-06T21:22:11.234Z,72.50
2018-05-06T21:24:38.777Z,72.50
2018-05-06T21:27:06.401Z,72.60
2018-05-06T21:29:34.015Z,72.70
2018-05-06T21:32:01.561Z,72.70
2018-05-06T21:34:29.156Z,73.00
2018-05-06T21:36:56.752Z,73.20
2018-05-06T21:39:24.332Z,73.00
2018-05-06T21:41:51.901Z,73.20
2018-05-06T21:44:19.721Z,73.20
2018-05-06T21:46:47.329Z,73.10
2018-05-06T21:49:15.310Z,73.10
2018-05-06T21:51:42.837Z,73.50
2018-05-06T21:54:10.459Z,74.00
2018-05-06T21:56:37.995Z,74.30
2018-05-06T21:59:05.660Z,74.40
2018-05-06T22:01:33.226Z,74.50
2018-05-06T22:04:00.789Z,75.00
2018-05-06T22:06:28.507Z,75.00
2018-05-06T22:08:56.101Z,75.00
2018-05-06T22:11:23.752Z,75.20
2018-05-06T22:13:51.375Z,75.40
2018-05-06T22:16:18.960Z,75.70
2018-05-06T22:18:46.529Z,75.60
2018-05-06T22:21:14.166Z,75.80
2018-05-06T22:23:41.739Z,76.20
2018-05-06T22:26:09.820Z,76.50
2018-05-06T22:28:37.487Z,76.50
2018-05-06T22:31:05.056Z,76.70
2018-05-06T22:33:32.637Z,76.60
2018-05-06T22:36:00.213Z,76.70
2018-05-06T22:38:27.764Z,76.60
2018-05-06T22:40:55.777Z,77.10
2018-05-06T22:43:23.327Z,77.00
2018-05-06T22:45:50.920Z,77.30
2018-05-06T22:48:18.526Z,77.20
2018-05-06T22:50:46.209Z,76.90
2018-05-06T22:53:13.854Z,77.10
2018-05-06T22:55:41.579Z,77.00
2018-05-06T22:58:09.161Z,77.20
2018-05-06T23:00:36.785Z,77.60
2018-05-06T23:03:04.541Z,77.40
2018-05-06T23:05:32.327Z,77.80
2018-05-06T23:08:00.001Z,78.00
2018-05-06T23:10:27.652Z,78.30
2018-05-06T23:12:55.619Z,78.30
2018-05-06T23:15:23.303Z,78.30
2018-05-06T23:17:50.928Z,78.20
2018-05-06T23:20:18.638Z,78.20
2018-05-06T23:22:46.377Z,78.50
2018-05-06T23:25:14.085Z,78.70
2018-05-06T23:27:41.702Z,78.90
2018-05-06T23:30:09.409Z,78.70
2018-05-06T23:32:37.026Z,78.90
2018-05-06T23:35:04.961Z,79.10
2018-05-06T23:37:32.620Z,78.80
2018-05-06T23:40:00.254Z,78.90
2018-05-06T23:42:27.828Z,79.20
2018-05-06T23:44:55.561Z,79.30
2018-05-06T23:47:23.143Z,79.50
2018-05-06T23:49:50.811Z,79.50
2018-05-06T23:52:18.435Z,79.80
2018-05-06T23:54:46.100Z,79.70
2018-05-06T23:57:13.688Z,79.50
2018-05-06T23:59:41.212Z,79.60
